Time;durP1;ratioP1;P1;durP2;ratioP2;P2;SDS_P1;SDS_P2;PMS_P1;PMS_P2;Temp;Humidity;BMP_temperature;BMP_pressure;BME280_temperature;BME280_humidity;BME280_pressure;Samples;Min_cycle;Max_cycle;Signal;HPM_P1;HPM_P2
2022/07/19 00:00:20;;;;;;;11.18;5.72;;;;;;;23.73;52.38;101703.22;4977919;28;20515;-84
2022/07/19 00:02:46;;;;;;;9.77;5.32;;;;;;;23.54;52.69;101713.63;4976338;28;20089;-84
2022/07/19 00:05:13;;;;;;;20.48;6.15;;;;;;;23.30;53.88;101703.53;4977536;28;20034;-84
2022/07/19 00:07:39;;;;;;;22.88;5.93;;;;;;;23.33;53.60;101707.03;4976194;28;20030;-84
2022/07/19 00:10:07;;;;;;;13.93;5.82;;;;;;;23.26;53.91;101704.59;4977014;28;20035;-83
2022/07/19 00:12:34;;;;;;;17.50;5.88;;;;;;;23.24;54.29;101700.09;4976919;28;20484;-84
2022/07/19 00:14:59;;;;;;;31.58;6.68;;;;;;;23.31;54.26;101711.59;4977099;28;20084;-83
2022/07/19 00:17:25;;;;;;;37.20;6.25;;;;;;;23.14;53.92;101687.81;4977264;28;20110;-84
2022/07/19 00:19:50;;;;;;;21.67;6.18;;;;;;;23.14;54.50;101703.09;4977213;28;20383;-84
2022/07/19 00:22:15;;;;;;;24.50;6.68;;;;;;;23.16;53.78;101688.63;4976519;28;20107;-84
2022/07/19 00:24:41;;;;;;;20.65;6.60;;;;;;;23.16;53.40;101691.31;4977056;28;20034;-84
2022/07/19 00:27:06;;;;;;;22.52;6.22;;;;;;;23.11;54.06;101695.09;4977489;28;20101;-84
2022/07/19 00:29:32;;;;;;;21.33;6.57;;;;;;;23.09;54.43;101691.56;4975857;28;20041;-83
2022/07/19 00:31:57;;;;;;;17.48;7.18;;;;;;;23.15;52.51;101681.47;4976768;28;20037;-84
2022/07/19 00:34:22;;;;;;;22.08;6.65;;;;;;;23.15;53.79;101694.97;4976801;28;20038;-84
2022/07/19 00:36:48;;;;;;;22.92;6.75;;;;;;;23.03;53.65;101687.22;4976933;28;20034;-84
2022/07/19 00:39:13;;;;;;;15.30;6.35;;;;;;;22.99;53.90;101683.72;4977102;28;20118;-84
2022/07/19 00:41:41;;;;;;;14.45;6.30;;;;;;;22.98;53.59;101681.94;4976377;28;20483;-84
2022/07/19 00:44:07;;;;;;;14.15;6.15;;;;;;;23.00;53.66;101695.41;4975763;28;20027;-84
2022/07/19 00:46:33;;;;;;;9.60;5.68;;;;;;;22.98;53.86;101687.34;4976755;28;20105;-84
2022/07/19 00:48:58;;;;;;;13.30;6.18;;;;;;;22.89;54.33;101686.69;4977002;28;20035;-83
2022/07/19 00:51:23;;;;;;;10.57;5.18;;;;;;;22.92;55.17;101697.41;4976403;28;20474;-84
2022/07/19 00:53:50;;;;;;;10.50;5.40;;;;;;;22.82;54.89;101685.94;4977123;28;20026;-83
2022/07/19 00:56:17;;;;;;;7.65;5.07;;;;;;;22.81;54.98;101681.50;4976177;28;20035;-84
2022/07/19 00:58:42;;;;;;;10.15;5.40;;;;;;;22.81;54.28;101684.19;4974967;28;20027;-83
2022/07/19 01:01:08;;;;;;;13.02;5.40;;;;;;;22.72;54.60;101684.44;4976593;28;20464;-83
2022/07/19 01:03:36;;;;;;;13.57;5.55;;;;;;;22.63;55.31;101672.09;4976464;28;20030;-83
2022/07/19 01:06:02;;;;;;;8.07;5.22;;;;;;;22.55;55.24;101674.09;4976316;28;20030;-83
2022/07/19 01:08:28;;;;;;;11.35;5.78;;;;;;;22.53;55.60;101686.72;4976324;28;20034;-84
2022/07/19 01:10:53;;;;;;;9.82;5.80;;;;;;;22.59;55.47;101685.69;4976005;28;20031;-84
2022/07/19 01:13:18;;;;;;;11.23;5.80;;;;;;;22.57;54.94;101682.13;4974941;28;20478;-84
2022/07/19 01:15:44;;;;;;;12.48;6.00;;;;;;;22.43;55.26;101686.06;4976018;28;20105;-83
2022/07/19 01:18:09;;;;;;;11.80;5.80;;;;;;;22.36;55.40;101673.69;4975091;28;20034;-83
2022/07/19 01:20:35;;;;;;;10.30;5.88;;;;;;;22.33;55.31;101686.34;4975109;28;20090;-84
2022/07/19 01:23:01;;;;;;;10.57;5.80;;;;;;;22.30;55.25;101679.22;4976044;28;20117;-83
2022/07/19 01:25:35;;;;;;;10.43;5.68;;;;;;;22.36;55.26;101692.53;4975751;28;20034;-83
2022/07/19 01:28:03;;;;;;;9.20;5.60;;;;;;;22.35;55.19;101684.47;4974782;28;20091;-83
2022/07/19 01:30:29;;;;;;;10.32;5.45;;;;;;;22.20;55.71;101678.56;4975882;28;20026;-83
2022/07/19 01:32:54;;;;;;;8.70;5.75;;;;;;;22.16;55.98;101689.44;4975885;28;20109;-84
2022/07/19 01:35:20;;;;;;;8.98;5.97;;;;;;;22.17;56.12;101692.06;4975697;28;20107;-83
2022/07/19 01:37:46;;;;;;;11.38;5.95;;;;;;;22.12;55.48;101690.41;4974691;28;20451;-84
2022/07/19 01:40:15;;;;;;;8.25;5.80;;;;;;;22.18;54.96;101693.88;4975472;28;20105;-84
2022/07/19 01:42:41;;;;;;;11.40;6.03;;;;;;;22.12;55.30;101695.78;4975649;28;20046;-84
2022/07/19 01:45:09;;;;;;;11.70;6.18;;;;;;;22.03;55.38;101678.03;4975934;28;20506;-84
2022/07/19 01:47:35;;;;;;;10.88;6.00;;;;;;;22.06;55.35;101680.66;4975674;28;20117;-84
2022/07/19 01:50:00;;;;;;;10.65;5.88;;;;;;;22.06;55.40;101682.47;4975386;28;20038;-84
2022/07/19 01:52:26;;;;;;;11.73;5.70;;;;;;;22.02;55.38;101678.97;4975515;28;20035;-84
2022/07/19 01:54:51;;;;;;;10.02;5.68;;;;;;;21.89;56.48;101678.38;4974085;28;20042;-84
2022/07/19 01:57:17;;;;;;;10.15;5.57;;;;;;;21.81;56.52;101685.72;4975559;28;20027;-84
2022/07/19 01:59:42;;;;;;;11.20;5.22;;;;;;;21.79;56.72;101679.47;4975533;28;20027;-84
2022/07/19 02:02:08;;;;;;;8.80;5.50;;;;;;;21.77;57.34;101683.13;4974432;28;20042;-84
2022/07/19 02:04:34;;;;;;;8.00;5.63;;;;;;;21.76;57.26;101682.25;4975253;28;20370;-84
2022/07/19 02:06:59;;;;;;;8.73;5.53;;;;;;;21.82;57.51;101686.59;4974976;28;20532;-85
2022/07/19 02:09:25;;;;;;;10.40;5.60;;;;;;;21.73;57.60;101687.69;4973348;28;20027;-84
2022/07/19 02:11:51;;;;;;;10.32;5.60;;;;;;;21.65;57.87;101687.84;4974713;28;20039;-84
2022/07/19 02:14:16;;;;;;;13.00;5.50;;;;;;;21.71;57.53;101684.13;4974978;28;20118;-83
2022/07/19 02:16:43;;;;;;;11.02;5.68;;;;;;;21.71;57.67;101689.53;4974974;28;20031;-84
2022/07/19 02:19:08;;;;;;;9.38;5.32;;;;;;;21.58;58.04;101686.22;4975346;28;20031;-84
2022/07/19 02:21:35;;;;;;;8.45;5.65;;;;;;;21.46;58.62;101675.75;4975286;28;20469;-84
2022/07/19 02:24:01;;;;;;;11.27;5.93;;;;;;;21.42;58.58;101672.22;4975019;28;20023;-83
2022/07/19 02:26:27;;;;;;;8.27;5.57;;;;;;;21.36;58.63;101653.50;4974974;28;20035;-84
2022/07/19 02:28:52;;;;;;;11.50;5.82;;;;;;;21.43;58.47;101668.59;4975207;28;20348;-84
2022/07/19 02:31:18;;;;;;;10.32;5.95;;;;;;;21.49;58.16;101675.66;4974949;28;20088;-84
2022/07/19 02:33:43;;;;;;;9.70;5.90;;;;;;;21.47;58.37;101673.00;4974994;28;20049;-84
2022/07/19 02:36:09;;;;;;;11.55;6.13;;;;;;;21.41;58.11;101675.84;4974691;28;20076;-84
2022/07/19 02:38:34;;;;;;;9.35;5.70;;;;;;;21.32;58.50;101669.75;4974561;28;20042;-84
2022/07/19 02:41:00;;;;;;;11.48;6.25;;;;;;;21.27;59.12;101662.63;4975020;28;20030;-84
2022/07/19 02:43:26;;;;;;;13.73;6.30;;;;;;;21.10;59.23;101645.06;4974558;28;20051;-84
2022/07/19 02:45:51;;;;;;;10.65;6.13;;;;;;;21.17;59.37;101666.44;4973415;28;20039;-84
2022/07/19 02:48:17;;;;;;;11.20;6.03;;;;;;;21.12;59.11;101662.06;4974572;28;20035;-84
2022/07/19 02:50:42;;;;;;;9.98;6.28;;;;;;;21.12;59.18;101667.44;4974536;28;20483;-84
2022/07/19 02:53:07;;;;;;;10.48;6.22;;;;;;;21.13;59.17;101666.53;4975314;28;20101;-85
2022/07/19 02:55:33;;;;;;;10.45;6.30;;;;;;;21.14;58.96;101668.28;4979937;28;20038;-87
2022/07/19 02:57:59;;;;;;;10.82;6.28;;;;;;;21.06;59.41;101670.22;4978124;28;20037;-83
2022/07/19 03:00:24;;;;;;;12.13;6.68;;;;;;;20.95;59.68;101663.28;4974629;28;20058;-83
2022/07/19 03:02:49;;;;;;;7.85;6.38;;;;;;;20.90;59.90;101654.44;4974860;28;20058;-83
2022/07/19 03:05:15;;;;;;;10.98;6.20;;;;;;;20.99;59.69;101656.06;4974683;28;20055;-84
2022/07/19 03:07:40;;;;;;;12.82;6.40;;;;;;;20.87;60.24;101654.47;4974722;28;20086;-84
2022/07/19 03:10:06;;;;;;;10.57;6.28;;;;;;;20.96;60.42;101664.16;4973191;28;20035;-84
2022/07/19 03:12:32;;;;;;;8.40;6.10;;;;;;;20.85;60.54;101656.28;4973578;28;20408;-83
2022/07/19 03:14:57;;;;;;;9.30;6.30;;;;;;;20.79;60.38;101644.78;4974637;28;20031;-83
2022/07/19 03:17:23;;;;;;;11.32;6.32;;;;;;;20.80;60.21;101647.44;4974427;28;20033;-83
2022/07/19 03:19:48;;;;;;;12.38;6.80;;;;;;;20.71;60.47;101644.94;4976617;28;20031;-83
2022/07/19 03:22:13;;;;;;;13.18;7.03;;;;;;;20.75;60.51;101650.22;4978175;28;20030;-84
2022/07/19 03:24:39;;;;;;;11.52;6.75;;;;;;;20.78;60.33;101643.91;4977134;28;20031;-83
2022/07/19 03:27:04;;;;;;;10.73;7.03;;;;;;;20.76;60.25;101649.28;4978281;28;20027;-83
2022/07/19 03:29:29;;;;;;;10.50;6.70;;;;;;;20.70;61.08;101633.31;4978186;28;20513;-83
2022/07/19 03:31:56;;;;;;;8.80;5.93;;;;;;;20.75;61.14;101646.66;4977856;28;20069;-83
2022/07/19 03:34:21;;;;;;;10.98;6.75;;;;;;;20.66;60.63;101626.22;4976805;28;20030;-83
2022/07/19 03:36:46;;;;;;;11.43;6.85;;;;;;;20.72;60.18;101642.19;4977077;28;20035;-84
2022/07/19 03:39:12;;;;;;;10.32;6.75;;;;;;;20.68;60.39;101643.16;4978082;28;20065;-83
2022/07/19 03:41:37;;;;;;;11.27;6.70;;;;;;;20.67;60.00;101643.22;4976152;28;20047;-83
2022/07/19 03:44:03;;;;;;;11.63;7.13;;;;;;;20.56;60.16;101623.75;4977475;28;20158;-82
2022/07/19 03:46:29;;;;;;;9.13;6.95;;;;;;;20.56;60.17;101634.47;4977386;28;20471;-84
2022/07/19 03:48:55;;;;;;;11.48;7.38;;;;;;;20.51;60.19;101623.78;4975552;28;20046;-84
2022/07/19 03:51:22;;;;;;;10.73;7.25;;;;;;;20.48;59.91;101635.50;4977300;28;20030;-84
2022/07/19 03:53:48;;;;;;;10.95;7.88;;;;;;;20.50;59.93;101627.41;4976593;28;20398;-84
2022/07/19 03:56:14;;;;;;;16.98;7.82;;;;;;;20.45;59.74;101630.13;4977226;28;20027;-83
2022/07/19 03:58:39;;;;;;;10.25;7.57;;;;;;;20.48;59.97;101639.97;4976683;28;20042;-84
2022/07/19 04:01:06;;;;;;;13.05;7.60;;;;;;;20.44;60.34;101646.28;4976801;28;20034;-83
2022/07/19 04:03:37;;;;;;;11.93;8.38;;;;;;;20.34;60.39;101645.56;4976970;28;20039;-83
2022/07/19 04:06:02;;;;;;;10.68;7.70;;;;;;;20.36;60.40;101649.09;4976619;28;20046;-83
2022/07/19 04:08:28;;;;;;;9.38;7.60;;;;;;;20.38;60.10;101654.41;4976733;28;20031;-83
2022/07/19 04:10:53;;;;;;;11.77;8.13;;;;;;;20.39;60.10;101657.09;4976435;28;20442;-83
2022/07/19 04:13:18;;;;;;;13.25;8.10;;;;;;;20.31;60.60;101640.25;4977135;28;20022;-83
2022/07/19 04:15:44;;;;;;;13.60;7.78;;;;;;;20.35;60.34;101636.59;4976372;28;20107;-83
2022/07/19 04:18:09;;;;;;;11.93;8.27;;;;;;;20.33;60.25;101651.81;4976685;28;20110;-85
2022/07/19 04:20:34;;;;;;;14.02;8.13;;;;;;;20.30;60.41;101638.47;4976313;28;20467;-84
2022/07/19 04:23:00;;;;;;;13.18;8.40;;;;;;;20.32;60.56;101643.81;4975525;28;20403;-84
2022/07/19 04:25:25;;;;;;;9.68;7.95;;;;;;;20.40;60.13;101652.63;4976783;28;20033;-84
2022/07/19 04:27:51;;;;;;;10.77;8.20;;;;;;;20.36;60.31;101640.16;4976553;28;20431;-84
2022/07/19 04:30:16;;;;;;;14.68;8.32;;;;;;;20.42;60.48;101659.72;4976031;28;20113;-84
2022/07/19 04:32:41;;;;;;;12.88;7.80;;;;;;;20.39;60.57;101656.22;4975941;28;20054;-87
2022/07/19 04:35:07;;;;;;;12.43;8.70;;;;;;;20.35;60.57;101654.50;4976347;28;20078;-84
2022/07/19 04:37:33;;;;;;;10.02;7.85;;;;;;;20.33;60.91;101645.56;4976225;28;20038;-83
2022/07/19 04:39:59;;;;;;;14.18;8.00;;;;;;;20.22;61.18;101625.16;4976535;28;20027;-84
2022/07/19 04:42:24;;;;;;;12.25;8.13;;;;;;;20.18;61.51;101622.56;4975627;28;20050;-83
2022/07/19 04:44:49;;;;;;;30.73;22.48;;;;;;;20.43;61.15;101649.88;4976244;28;20030;-84
2022/07/19 04:47:15;;;;;;;12.73;9.30;;;;;;;20.35;61.64;101641.06;4975858;28;20031;-84
2022/07/19 04:49:40;;;;;;;12.57;8.38;;;;;;;20.56;61.03;101650.59;4975992;28;20173;-84
2022/07/19 04:52:05;;;;;;;13.65;7.55;;;;;;;20.48;61.33;101627.44;4974313;28;20433;-83
2022/07/19 04:54:31;;;;;;;11.02;7.35;;;;;;;20.64;61.66;101651.31;4976153;28;20035;-83
2022/07/19 04:56:56;;;;;;;10.32;7.20;;;;;;;20.67;61.53;101654.84;4974823;28;20031;-84
2022/07/19 04:59:22;;;;;;;10.68;7.70;;;;;;;20.60;61.86;101633.47;4975815;28;20133;-83
2022/07/19 05:01:47;;;;;;;9.82;7.60;;;;;;;20.82;61.78;101658.19;4975814;28;20042;-84
2022/07/19 05:04:12;;;;;;;13.52;7.20;;;;;;;20.89;61.91;101643.69;4975631;28;20042;-83
2022/07/19 05:06:38;;;;;;;12.88;7.50;;;;;;;20.97;61.62;101637.25;4975725;28;20341;-83
2022/07/19 05:09:03;;;;;;;10.00;6.75;;;;;;;21.15;61.83;101640.47;4975725;28;20117;-83
2022/07/19 05:11:29;;;;;;;13.18;7.82;;;;;;;21.24;61.60;101632.22;4975428;28;20034;-83
2022/07/19 05:13:54;;;;;;;13.48;8.38;;;;;;;21.44;60.85;101645.28;4975607;28;20431;-83
2022/07/19 05:16:20;;;;;;;19.38;10.85;;;;;;;21.48;59.15;101647.88;4975653;28;20035;-84
2022/07/19 05:18:45;;;;;;;18.38;9.80;;;;;;;21.57;59.43;101645.91;4975756;28;20043;-83
2022/07/19 05:21:10;;;;;;;16.63;10.02;;;;;;;21.73;60.03;101642.84;4975147;28;20034;-84
2022/07/19 05:23:36;;;;;;;13.57;9.20;;;;;;;21.70;61.59;101636.63;4975528;28;20038;-83
2022/07/19 05:26:01;;;;;;;17.77;9.60;;;;;;;21.83;61.35;101646.19;4975436;28;20309;-83
2022/07/19 05:28:26;;;;;;;14.88;10.35;;;;;;;21.99;58.85;101652.13;4975658;28;20031;-83
2022/07/19 05:30:52;;;;;;;14.73;10.13;;;;;;;22.15;58.91;101648.16;4974130;28;20057;-83
2022/07/19 05:33:17;;;;;;;16.48;10.10;;;;;;;22.25;58.85;101646.13;4975599;28;20444;-89
2022/07/19 05:35:42;;;;;;;15.68;10.60;;;;;;;22.28;60.48;101626.34;4974339;28;20467;-84
2022/07/19 05:38:08;;;;;;;15.38;10.82;;;;;;;22.53;58.58;101649.03;4975431;28;20146;-84
2022/07/19 05:40:33;;;;;;;18.70;11.48;;;;;;;22.65;57.82;101654.06;4973729;28;20434;-83
2022/07/19 05:43:00;;;;;;;20.85;11.98;;;;;;;22.79;56.04;101648.31;4974948;28;20443;-83
2022/07/19 05:45:26;;;;;;;18.42;12.32;;;;;;;22.88;56.33;101656.16;4974053;28;20038;-84
2022/07/19 05:47:51;;;;;;;19.08;12.75;;;;;;;23.04;54.23;101656.66;4974786;28;20027;-83
2022/07/19 05:50:16;;;;;;;18.40;13.05;;;;;;;23.14;54.38;101655.44;4957747;28;20030;-84
2022/07/19 05:52:42;;;;;;;20.30;13.07;;;;;;;23.33;53.32;101652.22;4974672;28;20027;-83
2022/07/19 05:55:07;;;;;;;16.52;12.93;;;;;;;23.45;53.16;101655.44;4975290;28;20023;-83
2022/07/19 05:57:33;;;;;;;21.48;13.52;;;;;;;23.60;53.18;101659.50;4974753;28;20031;-83
2022/07/19 05:59:58;;;;;;;18.02;12.93;;;;;;;23.51;53.67;101632.81;4974805;28;20332;-83
2022/07/19 06:02:24;;;;;;;22.80;13.55;;;;;;;23.77;51.94;101658.09;4974732;28;20026;-83
2022/07/19 06:04:49;;;;;;;19.98;14.18;;;;;;;23.93;51.43;101652.16;4974866;28;20038;-84
2022/07/19 06:07:15;;;;;;;25.63;13.25;;;;;;;24.15;51.79;101662.28;4973381;28;20406;-83
2022/07/19 06:09:40;;;;;;;24.50;13.55;;;;;;;24.33;50.38;101667.09;4973618;28;20418;-82
2022/07/19 06:12:06;;;;;;;30.23;14.13;;;;;;;24.46;51.57;101659.50;4974616;28;20037;-82
2022/07/19 06:14:31;;;;;;;23.50;14.88;;;;;;;24.68;50.25;101665.03;4973371;28;20122;-83
2022/07/19 06:16:56;;;;;;;24.50;14.50;;;;;;;24.83;50.09;101667.19;4974558;28;20134;-83
2022/07/19 06:19:22;;;;;;;29.48;14.77;;;;;;;24.93;49.51;101665.94;4973288;28;20114;-84
2022/07/19 06:21:47;;;;;;;21.50;14.52;;;;;;;24.92;48.88;101650.66;4974453;28;20398;-85
2022/07/19 06:24:12;;;;;;;21.75;14.05;;;;;;;25.16;48.08;101664.25;4974087;28;20490;-85
2022/07/19 06:26:38;;;;;;;22.42;13.50;;;;;;;25.17;48.42;101655.19;4974472;28;20042;-85
2022/07/19 06:29:04;;;;;;;24.38;13.85;;;;;;;25.51;47.26;101664.72;4972979;28;20070;-85
2022/07/19 06:31:29;;;;;;;25.52;13.20;;;;;;;25.56;47.59;101671.72;4974290;28;20351;-86
2022/07/19 06:33:54;;;;;;;27.42;12.73;;;;;;;25.72;46.75;101670.19;4974287;28;20031;-86
2022/07/19 06:36:20;;;;;;;16.73;11.70;;;;;;;25.91;45.71;101664.97;4974764;28;20058;-85
2022/07/19 06:38:47;;;;;;;21.90;11.30;;;;;;;26.01;44.94;101654.63;4974492;28;20031;-85
2022/07/19 06:41:13;;;;;;;21.05;11.80;;;;;;;26.08;44.55;101647.13;4974060;28;20447;-85
2022/07/19 06:43:39;;;;;;;24.40;12.02;;;;;;;26.27;45.87;101650.84;4972951;28;20379;-85
2022/07/19 06:46:05;;;;;;;21.23;10.88;;;;;;;26.46;44.96;101649.13;4972712;28;20332;-86
2022/07/19 06:48:30;;;;;;;18.02;11.80;;;;;;;26.60;45.38;101640.44;4977879;28;20033;-84
2022/07/19 06:50:56;;;;;;;22.08;10.95;;;;;;;26.67;45.63;101628.34;4972235;28;20527;-87
2022/07/19 06:53:21;;;;;;;30.77;11.90;;;;;;;26.96;45.32;101656.91;4972149;28;20027;-84
2022/07/19 06:55:46;;;;;;;21.88;11.27;;;;;;;27.21;44.15;101648.56;4973629;28;20033;-83
2022/07/19 06:58:12;;;;;;;19.90;10.45;;;;;;;27.32;44.52;101647.16;4973632;28;20027;-84
2022/07/19 07:00:38;;;;;;;22.13;10.57;;;;;;;27.55;44.83;101648.81;4973954;28;20033;-84
2022/07/19 07:03:03;;;;;;;20.05;9.98;;;;;;;27.71;42.29;101647.16;4973866;28;20031;-84
2022/07/19 07:05:28;;;;;;;21.23;8.98;;;;;;;27.81;42.26;101651.19;4973750;28;20066;-84
2022/07/19 07:07:54;;;;;;;22.63;8.20;;;;;;;27.99;41.83;101643.09;4973874;28;20382;-83
2022/07/19 07:10:20;;;;;;;19.40;8.30;;;;;;;28.27;42.90;101654.38;4973588;28;20133;-83
2022/07/19 07:12:46;;;;;;;20.63;8.52;;;;;;;28.27;39.52;101646.22;4973675;28;20022;-83
2022/07/19 07:15:11;;;;;;;18.45;8.65;;;;;;;28.40;40.67;101638.34;4973727;28;20037;-85
2022/07/19 07:17:37;;;;;;;20.75;8.63;;;;;;;28.65;40.35;101649.72;4972247;28;20030;-86
2022/07/19 07:20:05;;;;;;;19.85;8.70;;;;;;;28.50;39.63;101647.78;4972177;28;20022;-83
2022/07/19 07:22:33;;;;;;;20.65;9.00;;;;;;;28.59;39.89;101644.56;4972318;28;20081;-87
2022/07/19 07:24:58;;;;;;;24.02;8.63;;;;;;;28.52;40.33;101647.69;4973555;28;20026;-85
2022/07/19 07:27:24;;;;;;;18.02;8.23;;;;;;;28.51;39.11;101626.91;4974144;28;20477;-82
2022/07/19 07:29:49;;;;;;;20.95;7.95;;;;;;;28.76;40.64;101635.53;4973698;28;20042;-85
2022/07/19 07:32:15;;;;;;;21.25;7.90;;;;;;;28.92;38.56;101644.66;4973627;28;20031;-85
2022/07/19 07:34:40;;;;;;;20.85;7.40;;;;;;;29.09;38.70;101635.59;4973608;28;20035;-84
2022/07/19 07:37:06;;;;;;;22.52;7.50;;;;;;;29.35;39.33;101645.06;4973711;28;20027;-84
2022/07/19 07:39:31;;;;;;;19.08;6.70;;;;;;;29.53;38.68;101636.84;4973346;28;20105;-86
2022/07/19 07:41:57;;;;;;;13.68;6.45;;;;;;;29.82;36.96;101637.94;4973280;28;20043;-87
2022/07/19 07:44:22;;;;;;;19.67;6.88;;;;;;;30.04;35.79;101626.66;4973354;28;20114;-87
2022/07/19 07:46:47;;;;;;;14.65;6.30;;;;;;;30.40;36.11;101635.41;4973513;28;20375;-86
2022/07/19 07:49:13;;;;;;;17.17;6.97;;;;;;;30.68;35.42;101631.03;4971925;28;20117;-85
2022/07/19 07:51:38;;;;;;;13.93;5.90;;;;;;;30.90;34.48;101633.34;4972033;28;20074;-87
2022/07/19 07:54:04;;;;;;;14.48;6.07;;;;;;;31.09;34.66;101630.31;4973490;28;20034;-88
2022/07/19 07:56:29;;;;;;;12.55;5.70;;;;;;;31.23;33.23;101621.28;4974051;28;20026;-89
2022/07/19 07:58:55;;;;;;;16.40;5.75;;;;;;;31.32;32.95;101610.66;4973501;28;20033;-88
2022/07/19 08:01:20;;;;;;;20.27;5.65;;;;;;;31.49;34.03;101615.03;4972306;28;20478;-88
2022/07/19 08:03:48;;;;;;;14.40;5.35;;;;;;;31.76;34.31;101612.34;4972086;28;20057;-89
2022/07/19 08:06:15;;;;;;;13.02;4.93;;;;;;;31.90;33.39;101617.78;4974502;28;20032;-85
2022/07/19 08:08:43;;;;;;;18.65;5.25;;;;;;;31.93;32.20;101605.78;4976602;28;20510;-88
2022/07/19 08:11:08;;;;;;;13.63;4.70;;;;;;;31.75;32.09;101607.84;4959566;28;20121;-86
2022/07/19 08:13:39;;;;;;;12.73;4.35;;;;;;;31.90;31.18;101611.44;4975582;28;20533;-88
2022/07/19 08:16:06;;;;;;;18.13;4.57;;;;;;;32.14;31.81;101604.34;4975713;28;20027;-88
2022/07/19 08:18:32;;;;;;;12.60;4.75;;;;;;;32.41;31.19;101615.25;4976604;28;20030;-86
2022/07/19 08:20:57;;;;;;;13.15;4.43;;;;;;;32.56;30.63;101610.59;4975601;28;20125;-87
2022/07/19 08:23:25;;;;;;;14.50;4.35;;;;;;;32.78;31.09;101612.72;4976610;28;20085;-90
2022/07/19 08:25:51;;;;;;;14.00;4.40;;;;;;;32.90;30.03;101600.00;4976925;28;20031;-88
2022/07/19 08:28:26;;;;;;;13.38;4.28;;;;;;;33.02;29.43;101604.66;4942917;28;20030;-88
2022/07/19 08:30:51;;;;;;;15.07;4.43;;;;;;;33.13;30.00;101612.94;4976199;28;20030;-86
2022/07/19 08:33:19;;;;;;;15.95;4.75;;;;;;;33.24;28.49;101601.22;4975595;28;20030;-87
2022/07/19 08:35:44;;;;;;;9.10;4.05;;;;;;;33.45;29.46;101596.06;4976549;28;20062;-85
2022/07/19 08:38:10;;;;;;;22.13;4.18;;;;;;;33.61;29.12;101595.78;4976162;28;20113;-85
2022/07/19 08:40:39;;;;;;;20.02;4.45;;;;;;;33.81;29.10;101597.06;4976120;28;20463;-84
2022/07/19 08:43:04;;;;;;;14.98;4.07;;;;;;;34.04;29.01;101589.84;4976182;28;20455;-84
2022/07/19 08:45:30;;;;;;;13.57;4.57;;;;;;;34.17;27.69;101600.75;4976196;28;20034;-85
2022/07/19 08:47:57;;;;;;;11.75;4.60;;;;;;;34.36;28.18;101592.84;4983203;28;20022;-84
2022/07/19 08:50:24;;;;;;;13.85;4.28;;;;;;;34.44;27.37;101592.25;4995578;28;20061;-84
2022/07/19 08:52:53;;;;;;;13.45;4.20;;;;;;;34.39;27.03;101584.41;4995467;28;20022;-88
2022/07/19 08:55:19;;;;;;;13.98;4.40;;;;;;;34.47;27.96;101581.94;4995267;28;20030;-87
2022/07/19 08:58:02;;;;;;;13.88;4.10;;;;;;;34.80;28.36;101578.38;4995245;28;20021;-89
2022/07/19 09:00:32;;;;;;;14.77;4.88;;;;;;;34.88;26.84;101575.03;4993959;28;20042;-88
2022/07/19 09:03:01;;;;;;;13.32;4.43;;;;;;;34.86;26.60;101575.16;4995138;28;20066;-87
2022/07/19 09:05:28;;;;;;;14.38;4.20;;;;;;;35.13;26.81;101598.69;4995183;28;20022;-88
2022/07/19 09:08:19;;;;;;;18.52;4.38;;;;;;;35.41;27.26;101585.41;4977575;28;20038;-87
2022/07/19 09:13:35;;;;;;;14.40;4.22;;;;;;;35.89;24.54;101577.72;4995193;28;20053;-85
2022/07/19 09:16:02;;;;;;;12.45;3.95;;;;;;;35.90;25.53;101573.97;4994096;28;20419;-86
2022/07/19 09:18:30;;;;;;;9.60;3.80;;;;;;;36.06;25.19;101566.19;4992980;28;20382;-84
2022/07/19 09:21:01;;;;;;;8.85;3.78;;;;;;;36.06;25.97;101566.19;4993714;28;20042;-84
2022/07/19 09:23:27;;;;;;;9.10;3.95;;;;;;;36.16;24.56;101571.78;4993431;28;20101;-83
2022/07/19 09:25:58;;;;;;;12.48;4.20;;;;;;;36.01;25.80;101573.94;4995086;28;20112;-83
2022/07/19 09:28:25;;;;;;;;;;;;;;;36.51;26.46;101579.75;4995116;28;20030;-83
2022/07/19 09:30:55;;;;;;;15.27;3.90;;;;;;;36.87;24.77;101574.72;4994748;28;19910;-84
2022/07/19 09:33:25;;;;;;;12.43;3.67;;;;;;;36.65;23.21;101566.63;4993284;28;20533;-83
2022/07/19 09:35:54;;;;;;;9.73;3.80;;;;;;;36.57;23.47;101568.22;4977521;28;20479;-83
2022/07/19 09:38:34;;;;;;;8.45;4.05;;;;;;;36.76;23.71;101563.81;4993508;28;20019;-82
2022/07/19 09:41:19;;;;;;;15.90;4.07;;;;;;;36.69;23.14;101573.63;4993075;28;20371;-83
2022/07/19 09:43:55;;;;;;;12.18;4.07;;;;;;;36.54;23.30;101573.09;4994717;28;20108;-85
2022/07/19 09:46:29;;;;;;;9.35;3.55;;;;;;;36.77;23.20;101560.03;4994979;28;20022;-86
2022/07/19 09:49:03;;;;;;;13.63;3.90;;;;;;;36.51;23.18;101554.97;4994679;28;20081;-85
2022/07/19 09:51:30;;;;;;;11.18;4.10;;;;;;;36.96;21.85;101557.44;4994473;28;20030;-85
2022/07/19 09:53:57;;;;;;;16.10;4.20;;;;;;;37.09;22.03;101566.34;4994467;28;20042;-86
2022/07/19 09:56:22;;;;;;;10.90;3.75;;;;;;;37.32;22.77;101550.44;4993205;28;20073;-84
2022/07/19 09:58:48;;;;;;;12.00;4.25;;;;;;;37.26;20.93;101551.03;4994490;28;20030;-85
2022/07/19 10:01:14;;;;;;;8.55;3.90;;;;;;;37.17;20.30;101551.84;4994067;28;20065;-83
2022/07/19 10:03:41;;;;;;;9.15;3.63;;;;;;;37.28;20.97;101546.22;4994445;28;20077;-85
2022/07/19 10:06:07;;;;;;;11.95;3.63;;;;;;;37.74;21.91;101552.19;4993151;28;20076;-85
2022/07/19 10:08:32;;;;;;;11.73;3.70;;;;;;;37.84;21.27;101550.28;4994781;28;20455;-86
2022/07/19 10:10:58;;;;;;;8.90;3.72;;;;;;;38.09;20.51;101548.88;4993712;28;20030;-83
2022/07/19 10:13:24;;;;;;;11.32;3.90;;;;;;;38.46;20.73;101548.13;4992632;28;20045;-83
2022/07/19 10:15:54;;;;;;;10.23;3.40;;;;;;;38.36;20.54;101533.47;4994055;28;20068;-83
2022/07/19 10:18:29;;;;;;;9.50;3.80;;;;;;;38.27;20.74;101532.44;4993811;28;20504;-83
2022/07/19 10:20:55;;;;;;;8.95;3.85;;;;;;;38.16;18.54;101529.84;4993856;28;20034;-83
2022/07/19 10:23:31;;;;;;;12.48;3.67;;;;;;;38.31;20.23;101531.13;4993610;28;20019;-83
2022/07/19 10:25:57;;;;;;;8.80;3.65;;;;;;;38.52;20.48;101519.94;4994046;28;20101;-83
2022/07/19 10:28:31;;;;;;;10.63;3.85;;;;;;;38.81;18.51;101533.69;4992949;28;20489;-84
2022/07/19 10:30:57;;;;;;;8.98;3.85;;;;;;;39.00;19.82;101533.59;4992650;28;20027;-83
2022/07/19 10:33:32;;;;;;;7.65;3.75;;;;;;;38.96;19.30;101534.94;4993675;28;20029;-83
2022/07/19 10:35:58;;;;;;;9.70;3.67;;;;;;;39.16;19.01;101529.31;4993788;28;20025;-83
2022/07/19 10:38:23;;;;;;;10.38;3.85;;;;;;;39.33;18.36;101527.66;4976117;28;20027;-83
2022/07/19 10:40:56;;;;;;;10.05;3.42;;;;;;;39.30;19.48;101529.69;4992103;28;20041;-82
2022/07/19 10:43:24;;;;;;;12.57;3.50;;;;;;;39.51;18.90;101514.72;4991978;28;20034;-83
2022/07/19 10:45:56;;;;;;;8.98;3.63;;;;;;;39.76;17.95;101521.41;4993759;28;20112;-83
2022/07/19 10:48:38;;;;;;;12.27;3.60;;;;;;;39.16;17.92;101501.69;4992271;28;20076;-85
2022/07/19 10:51:06;;;;;;;9.57;3.40;;;;;;;39.23;18.87;101513.88;4993361;28;20026;-84
2022/07/19 10:53:40;;;;;;;10.27;3.70;;;;;;;39.41;19.07;101509.25;4993598;28;20080;-84
2022/07/19 10:56:19;;;;;;;9.38;3.58;;;;;;;39.51;17.92;101503.66;4990406;28;20023;-85
2022/07/19 10:58:57;;;;;;;8.25;3.20;;;;;;;39.74;16.94;101504.94;4973609;28;20033;-88
2022/07/19 11:01:24;;;;;;;10.38;3.63;;;;;;;39.30;16.10;101512.25;4973967;28;20459;-86
2022/07/19 11:03:51;;;;;;;7.60;3.38;;;;;;;39.34;17.41;101505.38;4974083;28;20074;-86
2022/07/19 11:06:24;;;;;;;5.18;3.17;;;;;;;39.53;16.80;101496.97;4973812;28;20160;-86
2022/07/19 11:08:57;;;;;;;7.70;3.00;;;;;;;39.52;16.22;101486.88;4974121;28;20027;-83
2022/07/19 11:11:25;;;;;;;9.40;3.10;;;;;;;39.87;15.95;101492.63;4973486;28;20031;-84
2022/07/19 11:13:57;;;;;;;8.80;3.35;;;;;;;40.17;17.06;101491.34;4974022;28;20026;-85
2022/07/19 11:16:25;;;;;;;11.98;3.50;;;;;;;40.32;16.37;101494.41;4973665;28;20027;-84